Flight Track Log - Related Links

Times and Time Zones

All times are in EDT time to prevent confusion due to time zone crossing. See the EJA728 flight status page for this flight to view local times or setup timezone preferences in your user account.

Time Position Orientation Groundspeed Altitude Reporting Facility
EDT Latitude Longitude Course Direction KTS MPH feet Rate Location/Type
Mon 01:06:54 PM 39.1500 -76.6500 38° Northeast 198 228 2,800  Level Potomac TRACON
Mon 01:07:54 PM 39.1000 -76.5833 134° Southeast 239 275 6,600 3,750 Climbing Potomac TRACON
Mon 01:08:54 PM 39.1333 -76.5000 63° Northeast 297 342 10,300 2,263 Climbing Potomac TRACON
Mon 01:09:48 PM 39.1500 -76.3833 80° East 348 400 10,900 330 Climbing Potomac TRACON
Mon 01:10:43 PM 39.1667 -76.2833 78° East 353 406 10,900  Level Potomac TRACON
Mon 01:11:43 PM 39.2333 -76.1833 49° Northeast 355 409 10,900 54 Level Potomac TRACON
Mon 01:12:00 PM 39.3236 -76.0098 38° Northeast  Level FlightAware Approximate
Mon 01:12:35 PM 39.2933 -76.1058 45° Northeast 355 409 11,000  Level FAA TRACON SMA TRACON (SMA)
Mon 01:12:54 PM 39.3158 -76.0764 45° Northeast 357 411 11,000  Level FAA TRACON SMA TRACON (SMA)
Mon 01:13:14 PM 39.3419 -76.0428 45° Northeast 357 411 11,000  Level FAA TRACON SMA TRACON (SMA)
Mon 01:13:34 PM 39.3636 -76.0147 45° Northeast 357 411 11,000  Level FAA TRACON SMA TRACON (SMA)
Mon 01:13:54 PM 39.3853 -75.9869 45° Northeast 357 411 11,000  Level FAA TRACON SMA TRACON (SMA)
Mon 01:14:14 PM 39.4125 -75.9517 45° Northeast 358 412 11,000 154 Level FAA TRACON SMA TRACON (SMA)
Mon 01:14:33 PM 39.4339 -75.9239 45° Northeast 356 410 11,100  Climbing FAA TRACON SMA TRACON (SMA)
Mon 01:14:54 PM 39.4561 -75.8964 44° Northeast 356 410 11,000 -1,200 Descending FAA TRACON SMA TRACON (SMA)
Mon 01:15:13 PM 39.4911 -75.8839 15° North 322 371 10,300 -1,950 Descending FAA TRACON SMA TRACON (SMA)
Mon 01:15:34 PM 39.5186 -75.8856 357° North 310 357 9,700 -1,610 Descending FAA TRACON SMA TRACON (SMA)
Mon 01:15:54 PM 39.5442 -75.8864 359° North 306 352 9,200 -1,846 Descending FAA TRACON SMA TRACON (SMA)
Mon 01:16:13 PM 39.5753 -75.8856 North 291 335 8,500 -1,950 Descending FAA TRACON SMA TRACON (SMA)
Mon 01:16:34 PM 39.5994 -75.8842 North 279 321 7,900 -1,800 Descending FAA TRACON SMA TRACON (SMA)
Mon 01:16:53 PM 39.6231 -75.8828 North 276 318 7,300 -1,950 Descending FAA TRACON SMA TRACON (SMA)
Mon 01:17:14 PM 39.6503 -75.8814 North 271 312 6,600 -2,100 Descending FAA TRACON SMA TRACON (SMA)
Mon 01:17:33 PM 39.6742 -75.8806 North 265 305 5,900 -1,950 Descending FAA TRACON SMA TRACON (SMA)
Mon 01:17:54 PM 39.6967 -75.8792 North 261 300 5,300 -1,902 Descending FAA TRACON SMA TRACON (SMA)
Mon 01:18:14 PM 39.7225 -75.8778 North 257 296 4,600 -1,756 Descending FAA TRACON SMA TRACON (SMA)
Mon 01:18:35 PM 39.7411 -75.8758 North 207 238 4,100 -1,350 Descending FAA TRACON SMA TRACON (SMA)
Mon 01:18:54 PM 39.7611 -75.8764 359° North 211 243 3,700 -1,385 Descending FAA TRACON SMA TRACON (SMA)
Mon 01:19:14 PM 39.7767 -75.8750 North 200 230 3,200 -923 Descending FAA TRACON SMA TRACON (SMA)
Mon 01:19:33 PM 39.7975 -75.8733 North 210 242 3,100 -150 Descending FAA TRACON SMA TRACON (SMA)
Mon 01:19:54 PM 39.8156 -75.8728 North 200 230 3,100 -150 Level FAA TRACON SMA TRACON (SMA)
Mon 01:20:13 PM 39.8331 -75.8647 19° North 223 257 3,000 -150 Descending FAA TRACON SMA TRACON (SMA)
Mon 01:20:34 PM 39.8428 -75.8419 61° Northeast 198 228 3,000  Level FAA TRACON SMA TRACON (SMA)
Mon 01:20:53 PM 39.8544 -75.8258 47° Northeast 193 222 3,000  Level FAA TRACON SMA TRACON (SMA)
Mon 01:21:14 PM 39.8753 -75.8261 359° North 197 227 3,000 146 Level FAA TRACON SMA TRACON (SMA)
Mon 01:21:34 PM 39.8939 -75.8342 342° North 225 259 3,100  Climbing FAA TRACON SMA TRACON (SMA)
Mon 01:21:54 PM 39.9117 -75.8414 343° North 219 252 3,000 -150 Descending FAA TRACON SMA TRACON (SMA)
Mon 01:22:14 PM 39.9300 -75.8417 359° North 223 257 3,000  Level FAA TRACON SMA TRACON (SMA)
Mon 01:22:34 PM 39.9492 -75.8353 14° North 194 223 3,000  Level FAA TRACON SMA TRACON (SMA)
Mon 01:22:54 PM 39.9603 -75.8319 13° North 178 205 3,000  Level FAA TRACON SMA TRACON (SMA)
Mon 01:23:14 PM 39.9603 -75.8319 237° Southwest 178 205 3,000  Level FAA TRACON SMA TRACON (SMA)
Mon 01:25:00 PM 39.9667 -75.8500 303° West  Level FlightAware Approximate
Mon 01:32:00 PM 39.9790 -75.8655 303° West  Level Estimated
Mon 01:33:00 PM 39.9790 -75.8655 303° West  Level Estimated

Login

Don't have an account? Register now (free) for customized features, flight alerts, and more!